sensor_id;sensor_type;location;lat;lon;timestamp;pressure;altitude;pressure_sealevel;temperature;humidity
44359;BME280;30077;52.474;13.326;2022-12-05T00:01:29;101200.88;;;2.09;100.00
44359;BME280;30077;52.474;13.326;2022-12-05T00:06:32;101201.75;;;2.07;100.00
44359;BME280;30077;52.474;13.326;2022-12-05T00:11:36;101203.53;;;2.08;100.00
44359;BME280;30077;52.474;13.326;2022-12-05T00:16:38;101210.53;;;2.06;100.00
44359;BME280;30077;52.474;13.326;2022-12-05T00:21:39;101202.63;;;2.09;100.00
44359;BME280;30077;52.474;13.326;2022-12-05T00:26:40;101202.66;;;2.07;100.00
44359;BME280;30077;52.474;13.326;2022-12-05T00:31:42;101211.44;;;2.08;100.00
44359;BME280;30077;52.474;13.326;2022-12-05T00:36:43;101219.31;;;2.11;100.00
44359;BME280;30077;52.474;13.326;2022-12-05T00:41:44;101217.53;;;2.10;100.00
44359;BME280;30077;52.474;13.326;2022-12-05T00:46:44;101219.28;;;2.14;100.00
44359;BME280;30077;52.474;13.326;2022-12-05T00:51:44;101219.31;;;2.11;100.00
44359;BME280;30077;52.474;13.326;2022-12-05T00:56:45;101207.00;;;2.10;100.00
44359;BME280;30077;52.474;13.326;2022-12-05T01:01:47;101202.63;;;2.12;100.00
44359;BME280;30077;52.474;13.326;2022-12-05T01:06:49;101200.00;;;2.10;100.00
44359;BME280;30077;52.474;13.326;2022-12-05T01:11:49;101198.25;;;2.11;100.00
44359;BME280;30077;52.474;13.326;2022-12-05T01:16:51;101191.22;;;2.10;100.00
44359;BME280;30077;52.474;13.326;2022-12-05T01:21:52;101179.81;;;2.14;100.00
44359;BME280;30077;52.474;13.326;2022-12-05T01:26:53;101180.69;;;2.19;100.00
44359;BME280;30077;52.474;13.326;2022-12-05T01:31:54;101169.28;;;2.15;100.00
44359;BME280;30077;52.474;13.326;2022-12-05T01:36:54;101171.91;;;2.20;100.00
44359;BME280;30077;52.474;13.326;2022-12-05T01:41:55;101177.16;;;2.17;100.00
44359;BME280;30077;52.474;13.326;2022-12-05T01:46:55;101168.38;;;2.21;100.00
44359;BME280;30077;52.474;13.326;2022-12-05T01:52:08;101175.44;;;2.16;100.00
44359;BME280;30077;52.474;13.326;2022-12-05T01:57:10;101171.94;;;2.19;100.00
44359;BME280;30077;52.474;13.326;2022-12-05T02:02:11;101164.91;;;2.19;100.00
44359;BME280;30077;52.474;13.326;2022-12-05T02:07:12;101158.75;;;2.15;100.00
44359;BME280;30077;52.474;13.326;2022-12-05T02:12:12;101164.91;;;2.19;100.00
44359;BME280;30077;52.474;13.326;2022-12-05T02:17:17;101164.91;;;2.19;100.00
44359;BME280;30077;52.474;13.326;2022-12-05T02:33:16;101172.78;;;2.21;100.00
44359;BME280;30077;52.474;13.326;2022-12-05T02:38:50;101166.63;;;2.29;100.00
44359;BME280;30077;52.474;13.326;2022-12-05T02:44:00;101164.84;;;2.28;100.00
44359;BME280;30077;52.474;13.326;2022-12-05T02:49:06;101169.25;;;2.29;100.00
44359;BME280;30077;52.474;13.326;2022-12-05T02:54:10;101163.97;;;2.28;100.00
44359;BME280;30077;52.474;13.326;2022-12-05T02:59:13;101160.50;;;2.23;100.00
44359;BME280;30077;52.474;13.326;2022-12-05T03:04:14;101152.63;;;2.15;100.00
44359;BME280;30077;52.474;13.326;2022-12-05T03:14:32;101142.94;;;2.20;100.00
44359;BME280;30077;52.474;13.326;2022-12-05T03:19:57;101149.09;;;2.25;100.00
44359;BME280;30077;52.474;13.326;2022-12-05T03:25:00;101142.97;;;2.22;100.00
44359;BME280;30077;52.474;13.326;2022-12-05T03:30:10;101150.84;;;2.29;100.00
44359;BME280;30077;52.474;13.326;2022-12-05T03:35:18;101154.34;;;2.33;100.00
44359;BME280;30077;52.474;13.326;2022-12-05T03:45:51;101151.69;;;2.31;100.00
44359;BME280;30077;52.474;13.326;2022-12-05T03:50:55;101158.69;;;2.32;100.00
44359;BME280;30077;52.474;13.326;2022-12-05T03:56:09;101143.78;;;2.34;100.00
44359;BME280;30077;52.474;13.326;2022-12-05T04:01:12;101148.19;;;2.29;100.00
44359;BME280;30077;52.474;13.326;2022-12-05T04:06:30;101143.78;;;2.31;100.00
44359;BME280;30077;52.474;13.326;2022-12-05T04:11:37;101143.78;;;2.37;100.00
44359;BME280;30077;52.474;13.326;2022-12-05T04:16:43;101146.38;;;2.42;100.00
44359;BME280;30077;52.474;13.326;2022-12-05T04:22:03;101150.78;;;2.45;100.00
44359;BME280;30077;52.474;13.326;2022-12-05T04:32:25;101141.97;;;2.52;100.00
44359;BME280;30077;52.474;13.326;2022-12-05T04:37:30;101147.25;;;2.46;100.00
44359;BME280;30077;52.474;13.326;2022-12-05T04:42:34;101141.97;;;2.46;100.00
44359;BME280;30077;52.474;13.326;2022-12-05T04:47:39;101136.72;;;2.42;100.00
44359;BME280;30077;52.474;13.326;2022-12-05T04:52:42;101146.41;;;2.44;100.00
44359;BME280;30077;52.474;13.326;2022-12-05T04:57:52;101149.84;;;2.50;100.00
44359;BME280;30077;52.474;13.326;2022-12-05T05:03:03;101150.75;;;2.51;100.00
44359;BME280;30077;52.474;13.326;2022-12-05T05:08:15;101145.44;;;2.54;100.00
44359;BME280;30077;52.474;13.326;2022-12-05T05:13:15;101145.47;;;2.52;100.00
44359;BME280;30077;52.474;13.326;2022-12-05T05:18:16;101145.44;;;2.54;100.00
44359;BME280;30077;52.474;13.326;2022-12-05T05:23:17;101145.50;;;2.51;100.00
44359;BME280;30077;52.474;13.326;2022-12-05T05:28:18;101151.63;;;2.48;100.00
44359;BME280;30077;52.474;13.326;2022-12-05T05:33:18;101150.75;;;2.48;100.00
44359;BME280;30077;52.474;13.326;2022-12-05T05:38:19;101149.88;;;2.49;100.00
44359;BME280;30077;52.474;13.326;2022-12-05T05:43:19;101144.59;;;2.52;100.00
44359;BME280;30077;52.474;13.326;2022-12-05T05:48:19;101146.34;;;2.50;100.00
44359;BME280;30077;52.474;13.326;2022-12-05T05:53:19;101147.25;;;2.49;100.00
44359;BME280;30077;52.474;13.326;2022-12-05T05:58:20;101143.72;;;2.53;100.00
44359;BME280;30077;52.474;13.326;2022-12-05T06:03:20;101159.50;;;2.56;100.00
44359;BME280;30077;52.474;13.326;2022-12-05T06:08:20;101159.47;;;2.60;100.00
44359;BME280;30077;52.474;13.326;2022-12-05T06:13:21;101167.41;;;2.54;100.00
44359;BME280;30077;52.474;13.326;2022-12-05T06:18:21;101163.88;;;2.58;100.00
44359;BME280;30077;52.474;13.326;2022-12-05T06:23:22;101164.75;;;2.60;100.00
44359;BME280;30077;52.474;13.326;2022-12-05T06:28:24;101162.13;;;2.56;100.00
44359;BME280;30077;52.474;13.326;2022-12-05T06:33:24;101171.75;;;2.63;100.00
44359;BME280;30077;52.474;13.326;2022-12-05T06:38:25;101177.03;;;2.66;100.00
44359;BME280;30077;52.474;13.326;2022-12-05T06:43:25;101174.38;;;2.69;100.00
44359;BME280;30077;52.474;13.326;2022-12-05T06:48:25;101175.22;;;2.71;100.00
44359;BME280;30077;52.474;13.326;2022-12-05T06:53:26;101184.03;;;2.67;100.00
44359;BME280;30077;52.474;13.326;2022-12-05T06:58:27;101187.56;;;2.69;100.00
44359;BME280;30077;52.474;13.326;2022-12-05T07:03:27;101191.03;;;2.71;100.00
44359;BME280;30077;52.474;13.326;2022-12-05T07:08:28;101193.69;;;2.70;100.00
44359;BME280;30077;52.474;13.326;2022-12-05T07:13:28;101197.19;;;2.76;100.00
44359;BME280;30077;52.474;13.326;2022-12-05T07:18:29;101194.53;;;2.76;100.00
44359;BME280;30077;52.474;13.326;2022-12-05T07:23:29;101201.56;;;2.77;100.00
44359;BME280;30077;52.474;13.326;2022-12-05T07:28:30;101198.91;;;2.79;100.00
44359;BME280;30077;52.474;13.326;2022-12-05T07:33:31;101202.41;;;2.81;100.00
44359;BME280;30077;52.474;13.326;2022-12-05T07:38:31;101208.56;;;2.84;100.00
44359;BME280;30077;52.474;13.326;2022-12-05T07:43:31;101198.91;;;2.83;100.00
44359;BME280;30077;52.474;13.326;2022-12-05T07:48:32;101191.00;;;2.83;100.00
44359;BME280;30077;52.474;13.326;2022-12-05T07:53:33;101198.03;;;2.78;100.00
44359;BME280;30077;52.474;13.326;2022-12-05T07:58:34;101204.19;;;2.76;100.00
44359;BME280;30077;52.474;13.326;2022-12-05T08:03:36;101205.94;;;2.72;100.00
44359;BME280;30077;52.474;13.326;2022-12-05T08:08:37;101202.47;;;2.73;100.00
44359;BME280;30077;52.474;13.326;2022-12-05T08:13:38;101200.66;;;2.78;100.00
44359;BME280;30077;52.474;13.326;2022-12-05T08:18:39;101210.31;;;2.79;100.00
44359;BME280;30077;52.474;13.326;2022-12-05T08:23:40;101198.00;;;2.84;100.00
44359;BME280;30077;52.474;13.326;2022-12-05T08:28:41;101204.16;;;2.88;100.00
44359;BME280;30077;52.474;13.326;2022-12-05T08:33:43;101217.31;;;2.86;100.00
44359;BME280;30077;52.474;13.326;2022-12-05T08:38:44;101207.66;;;2.88;100.00
44359;BME280;30077;52.474;13.326;2022-12-05T08:43:44;101212.03;;;2.86;100.00
44359;BME280;30077;52.474;13.326;2022-12-05T08:48:45;101207.63;;;2.95;100.00
44359;BME280;30077;52.474;13.326;2022-12-05T08:53:45;101211.06;;;3.04;100.00
44359;BME280;30077;52.474;13.326;2022-12-05T08:58:46;101204.03;;;3.06;100.00
44359;BME280;30077;52.474;13.326;2022-12-05T09:03:47;101207.59;;;3.02;100.00
44359;BME280;30077;52.474;13.326;2022-12-05T09:08:51;101197.91;;;3.06;100.00
44359;BME280;30077;52.474;13.326;2022-12-05T09:13:54;101210.22;;;3.01;100.00
44359;BME280;30077;52.474;13.326;2022-12-05T09:18:56;101204.94;;;3.04;100.00
44359;BME280;30077;52.474;13.326;2022-12-05T09:23:58;101208.44;;;3.06;100.00
44359;BME280;30077;52.474;13.326;2022-12-05T09:29:00;101206.66;;;3.05;100.00
44359;BME280;30077;52.474;13.326;2022-12-05T09:34:01;101200.53;;;3.01;100.00
44359;BME280;30077;52.474;13.326;2022-12-05T09:39:04;101207.56;;;3.05;100.00
44359;BME280;30077;52.474;13.326;2022-12-05T09:44:11;101204.03;;;3.09;100.00
44359;BME280;30077;52.474;13.326;2022-12-05T09:49:15;101206.63;;;3.17;100.00
44359;BME280;30077;52.474;13.326;2022-12-05T09:54:16;101195.19;;;3.20;100.00
44359;BME280;30077;52.474;13.326;2022-12-05T09:59:18;101192.56;;;3.20;100.00
44359;BME280;30077;52.474;13.326;2022-12-05T10:09:51;101197.81;;;3.21;100.00
44359;BME280;30077;52.474;13.326;2022-12-05T10:15:10;101192.50;;;3.24;100.00
44359;BME280;30077;52.474;13.326;2022-12-05T10:20:18;101184.59;;;3.26;100.00
44359;BME280;30077;52.474;13.326;2022-12-05T10:25:21;101189.00;;;3.24;100.00
44359;BME280;30077;52.474;13.326;2022-12-05T10:30:29;101198.69;;;3.23;100.00
44359;BME280;30077;52.474;13.326;2022-12-05T10:35:37;101194.25;;;3.25;100.00
44359;BME280;30077;52.474;13.326;2022-12-05T10:40:40;101190.69;;;3.35;100.00
44359;BME280;30077;52.474;13.326;2022-12-05T10:45:44;101187.97;;;3.43;100.00
44359;BME280;30077;52.474;13.326;2022-12-05T10:50:48;101181.75;;;3.52;100.00
44359;BME280;30077;52.474;13.326;2022-12-05T10:55:50;101187.94;;;3.48;100.00
44359;BME280;30077;52.474;13.326;2022-12-05T11:00:53;101184.44;;;3.49;100.00
44359;BME280;30077;52.474;13.326;2022-12-05T11:06:00;101192.28;;;3.52;100.00
44359;BME280;30077;52.474;13.326;2022-12-05T11:16:22;101177.28;;;3.61;100.00
44359;BME280;30077;52.474;13.326;2022-12-05T11:21:24;101179.84;;;3.71;100.00
44359;BME280;30077;52.474;13.326;2022-12-05T11:26:35;101186.84;;;3.76;100.00
44359;BME280;30077;52.474;13.326;2022-12-05T11:31:36;101175.25;;;3.91;100.00
44359;BME280;30077;52.474;13.326;2022-12-05T11:36:42;101177.81;;;3.99;100.00
44359;BME280;30077;52.474;13.326;2022-12-05T11:41:50;101175.19;;;3.96;100.00
44359;BME280;30077;52.474;13.326;2022-12-05T11:47:13;101177.91;;;3.90;100.00
44359;BME280;30077;52.474;13.326;2022-12-05T11:52:34;101160.38;;;3.85;100.00
44359;BME280;30077;52.474;13.326;2022-12-05T11:58:11;101158.69;;;3.74;100.00
44359;BME280;30077;52.474;13.326;2022-12-05T12:03:42;101157.78;;;3.79;100.00
44359;BME280;30077;52.474;13.326;2022-12-05T12:25:26;101151.59;;;3.80;100.00
44359;BME280;30077;52.474;13.326;2022-12-05T12:51:50;101136.69;;;3.78;100.00
44359;BME280;30077;52.474;13.326;2022-12-05T12:57:00;101135.75;;;3.80;100.00
44359;BME280;30077;52.474;13.326;2022-12-05T13:02:28;101125.19;;;3.83;100.00
44359;BME280;30077;52.474;13.326;2022-12-05T13:07:38;101124.25;;;3.88;100.00
44359;BME280;30077;52.474;13.326;2022-12-05T13:12:41;101128.66;;;3.89;100.00
44359;BME280;30077;52.474;13.326;2022-12-05T13:17:46;101123.34;;;3.92;100.00
44359;BME280;30077;52.474;13.326;2022-12-05T13:22:49;101125.00;;;4.02;100.00
44359;BME280;30077;52.474;13.326;2022-12-05T13:27:57;101126.72;;;4.03;100.00
44359;BME280;30077;52.474;13.326;2022-12-05T13:33:03;101125.88;;;4.04;100.00
44359;BME280;30077;52.474;13.326;2022-12-05T13:38:22;101124.94;;;4.06;100.00
44359;BME280;30077;52.474;13.326;2022-12-05T13:43:45;101116.16;;;4.04;100.00
44359;BME280;30077;52.474;13.326;2022-12-05T13:48:49;101132.84;;;4.08;100.00
44359;BME280;30077;52.474;13.326;2022-12-05T13:54:01;101136.44;;;4.04;100.00
44359;BME280;30077;52.474;13.326;2022-12-05T13:59:04;101126.72;;;4.03;100.00
44359;BME280;30077;52.474;13.326;2022-12-05T14:04:21;101131.13;;;4.02;100.00
44359;BME280;30077;52.474;13.326;2022-12-05T14:09:30;101133.81;;;4.01;100.00
44359;BME280;30077;52.474;13.326;2022-12-05T14:15:00;101136.44;;;3.99;100.00
44359;BME280;30077;52.474;13.326;2022-12-05T14:35:50;101134.72;;;3.95;100.00
44359;BME280;30077;52.474;13.326;2022-12-05T14:40:54;101129.47;;;3.97;100.00
44359;BME280;30077;52.474;13.326;2022-12-05T14:46:01;101127.69;;;3.97;100.00
44359;BME280;30077;52.474;13.326;2022-12-05T14:56:28;101124.22;;;3.94;100.00
44359;BME280;30077;52.474;13.326;2022-12-05T15:01:38;101130.38;;;3.93;100.00
44359;BME280;30077;52.474;13.326;2022-12-05T15:06:55;101118.94;;;3.94;100.00
44359;BME280;30077;52.474;13.326;2022-12-05T15:11:57;101128.56;;;3.98;100.00
44359;BME280;30077;52.474;13.326;2022-12-05T15:16:58;101127.66;;;3.99;100.00
44359;BME280;30077;52.474;13.326;2022-12-05T15:22:01;101122.41;;;3.97;100.00
44359;BME280;30077;52.474;13.326;2022-12-05T15:27:09;101134.72;;;3.98;100.00
44359;BME280;30077;52.474;13.326;2022-12-05T15:37:33;101145.25;;;3.98;100.00
44359;BME280;30077;52.474;13.326;2022-12-05T15:42:36;101156.69;;;3.99;100.00
44359;BME280;30077;52.474;13.326;2022-12-05T15:47:53;101155.81;;;4.01;100.00
44359;BME280;30077;52.474;13.326;2022-12-05T15:58:27;101152.25;;;4.02;100.00
44359;BME280;30077;52.474;13.326;2022-12-05T16:03:39;101153.13;;;4.03;100.00
44359;BME280;30077;52.474;13.326;2022-12-05T16:08:45;101158.41;;;4.03;100.00
44359;BME280;30077;52.474;13.326;2022-12-05T16:13:58;101155.78;;;4.04;100.00
44359;BME280;30077;52.474;13.326;2022-12-05T16:19:10;101150.50;;;4.04;100.00
44359;BME280;30077;52.474;13.326;2022-12-05T16:24:26;101145.22;;;4.03;100.00
44359;BME280;30077;52.474;13.326;2022-12-05T16:29:32;101152.25;;;4.04;100.00
44359;BME280;30077;52.474;13.326;2022-12-05T16:34:33;101146.94;;;4.05;100.00
44359;BME280;30077;52.474;13.326;2022-12-05T16:39:33;101138.09;;;4.11;100.00
44359;BME280;30077;52.474;13.326;2022-12-05T16:49:46;101135.47;;;4.11;100.00
44359;BME280;30077;52.474;13.326;2022-12-05T16:54:47;101139.81;;;4.15;100.00
44359;BME280;30077;52.474;13.326;2022-12-05T16:59:48;101138.91;;;4.16;100.00
44359;BME280;30077;52.474;13.326;2022-12-05T17:04:48;101133.66;;;4.13;100.00
44359;BME280;30077;52.474;13.326;2022-12-05T17:09:49;101144.19;;;4.16;100.00
44359;BME280;30077;52.474;13.326;2022-12-05T17:14:49;101133.63;;;4.16;100.00
44359;BME280;30077;52.474;13.326;2022-12-05T17:19:49;101141.53;;;4.19;100.00
44359;BME280;30077;52.474;13.326;2022-12-05T17:24:50;101140.59;;;4.23;100.00
44359;BME280;30077;52.474;13.326;2022-12-05T17:29:50;101138.81;;;4.24;100.00
44359;BME280;30077;52.474;13.326;2022-12-05T17:34:50;101128.28;;;4.22;100.00
44359;BME280;30077;52.474;13.326;2022-12-05T17:39:50;101134.38;;;4.27;100.00
44359;BME280;30077;52.474;13.326;2022-12-05T17:44:51;101138.75;;;4.30;100.00
44359;BME280;30077;52.474;13.326;2022-12-05T17:49:51;101137.03;;;4.29;100.00
44359;BME280;30077;52.474;13.326;2022-12-05T17:54:51;101140.50;;;4.32;100.00
44359;BME280;30077;52.474;13.326;2022-12-05T17:59:51;101138.72;;;4.31;100.00
44359;BME280;30077;52.474;13.326;2022-12-05T18:04:52;101138.69;;;4.34;100.00
44359;BME280;30077;52.474;13.326;2022-12-05T18:09:52;101144.00;;;4.34;100.00
44359;BME280;30077;52.474;13.326;2022-12-05T18:14:52;101138.72;;;4.31;100.00
44359;BME280;30077;52.474;13.326;2022-12-05T18:19:54;101135.25;;;4.29;100.00
44359;BME280;30077;52.474;13.326;2022-12-05T18:24:55;101132.59;;;4.32;100.00
44359;BME280;30077;52.474;13.326;2022-12-05T18:29:57;101142.25;;;4.33;100.00
44359;BME280;30077;52.474;13.326;2022-12-05T18:34:58;101141.38;;;4.33;100.00
44359;BME280;30077;52.474;13.326;2022-12-05T18:40:00;101137.00;;;4.30;100.00
44359;BME280;30077;52.474;13.326;2022-12-05T18:45:02;101145.78;;;4.32;100.00
44359;BME280;30077;52.474;13.326;2022-12-05T18:50:02;101147.56;;;4.30;100.00
44359;BME280;30077;52.474;13.326;2022-12-05T18:55:06;101146.66;;;4.31;100.00
44359;BME280;30077;52.474;13.326;2022-12-05T19:00:07;101145.78;;;4.32;100.00
44359;BME280;30077;52.474;13.326;2022-12-05T19:05:08;101158.16;;;4.27;100.00
44359;BME280;30077;52.474;13.326;2022-12-05T19:10:09;101149.41;;;4.22;100.00
44359;BME280;30077;52.474;13.326;2022-12-05T19:15:10;101144.13;;;4.22;100.00
44359;BME280;30077;52.474;13.326;2022-12-05T19:20:10;101147.75;;;4.15;100.00
44359;BME280;30077;52.474;13.326;2022-12-05T19:25:11;101153.03;;;4.14;100.00
44359;BME280;30077;52.474;13.326;2022-12-05T19:30:11;101160.06;;;4.15;100.00
44359;BME280;30077;52.474;13.326;2022-12-05T19:35:12;101155.63;;;4.18;100.00
44359;BME280;30077;52.474;13.326;2022-12-05T19:40:13;101149.53;;;4.10;100.00
44359;BME280;30077;52.474;13.326;2022-12-05T19:45:13;101153.94;;;4.11;100.00
44359;BME280;30077;52.474;13.326;2022-12-05T19:50:14;101161.03;;;4.06;100.00
44359;BME280;30077;52.474;13.326;2022-12-05T19:55:14;101175.19;;;4.00;100.00
44359;BME280;30077;52.474;13.326;2022-12-05T20:00:16;101162.84;;;4.01;100.00
44359;BME280;30077;52.474;13.326;2022-12-05T20:05:18;101169.06;;;3.97;100.00
44359;BME280;30077;52.474;13.326;2022-12-05T20:10:19;101163.72;;;4.01;100.00
44359;BME280;30077;52.474;13.326;2022-12-05T20:15:20;101178.72;;;3.98;100.00
44359;BME280;30077;52.474;13.326;2022-12-05T20:20:20;101167.25;;;3.99;100.00
44359;BME280;30077;52.474;13.326;2022-12-05T20:25:20;101169.06;;;3.97;100.00
44359;BME280;30077;52.474;13.326;2022-12-05T20:30:21;101169.91;;;4.00;100.00
44359;BME280;30077;52.474;13.326;2022-12-05T20:35:21;101165.50;;;3.98;100.00
44359;BME280;30077;52.474;13.326;2022-12-05T20:40:22;101165.50;;;3.98;100.00
44359;BME280;30077;52.474;13.326;2022-12-05T20:45:23;101158.53;;;3.94;100.00
44359;BME280;30077;52.474;13.326;2022-12-05T20:50:23;101164.63;;;3.96;100.00
44359;BME280;30077;52.474;13.326;2022-12-05T20:55:23;101167.34;;;3.93;100.00
44359;BME280;30077;52.474;13.326;2022-12-05T21:00:23;101163.81;;;3.91;100.00
44359;BME280;30077;52.474;13.326;2022-12-05T21:05:24;101158.56;;;3.88;100.00
44359;BME280;30077;52.474;13.326;2022-12-05T21:10:24;101154.16;;;3.88;100.00
44359;BME280;30077;52.474;13.326;2022-12-05T21:15:24;101149.81;;;3.85;100.00
44359;BME280;30077;52.474;13.326;2022-12-05T21:20:24;101151.56;;;3.83;100.00
44359;BME280;30077;52.474;13.326;2022-12-05T21:25:25;101152.47;;;3.81;100.00
44359;BME280;30077;52.474;13.326;2022-12-05T21:30:25;101146.31;;;3.80;100.00
44359;BME280;30077;52.474;13.326;2022-12-05T21:35:25;101155.13;;;3.79;100.00
44359;BME280;30077;52.474;13.326;2022-12-05T21:40:26;101142.84;;;3.78;100.00
44359;BME280;30077;52.474;13.326;2022-12-05T21:45:26;101152.53;;;3.76;100.00
44359;BME280;30077;52.474;13.326;2022-12-05T21:50:27;101149.03;;;3.74;100.00
44359;BME280;30077;52.474;13.326;2022-12-05T21:55:27;101156.97;;;3.74;100.00
44359;BME280;30077;52.474;13.326;2022-12-05T22:00:27;101153.50;;;3.68;100.00
44359;BME280;30077;52.474;13.326;2022-12-05T22:05:27;101161.44;;;3.63;100.00
44359;BME280;30077;52.474;13.326;2022-12-05T22:10:28;101159.72;;;3.60;100.00
44359;BME280;30077;52.474;13.326;2022-12-05T22:15:28;101151.75;;;3.65;100.00
44359;BME280;30077;52.474;13.326;2022-12-05T22:20:28;101152.72;;;3.56;100.00
44359;BME280;30077;52.474;13.326;2022-12-05T22:25:29;101145.66;;;3.58;100.00
44359;BME280;30077;52.474;13.326;2022-12-05T22:30:29;101136.88;;;3.56;100.00
44359;BME280;30077;52.474;13.326;2022-12-05T22:35:33;101139.53;;;3.55;100.00
44359;BME280;30077;52.474;13.326;2022-12-05T22:40:36;101130.75;;;3.53;100.00
44359;BME280;30077;52.474;13.326;2022-12-05T22:45:37;101128.09;;;3.56;100.00
44359;BME280;30077;52.474;13.326;2022-12-05T22:50:37;101116.69;;;3.54;100.00
44359;BME280;30077;52.474;13.326;2022-12-05T22:55:39;101116.69;;;3.51;100.00
44359;BME280;30077;52.474;13.326;2022-12-05T23:00:41;101111.44;;;3.48;100.00
44359;BME280;30077;52.474;13.326;2022-12-05T23:05:42;101105.22;;;3.55;100.00
44359;BME280;30077;52.474;13.326;2022-12-05T23:10:43;101099.09;;;3.53;100.00
44359;BME280;30077;52.474;13.326;2022-12-05T23:15:43;101088.59;;;3.47;100.00
44359;BME280;30077;52.474;13.326;2022-12-05T23:20:43;101089.47;;;3.47;100.00
44359;BME280;30077;52.474;13.326;2022-12-05T23:25:44;101101.81;;;3.45;100.00
44359;BME280;30077;52.474;13.326;2022-12-05T23:30:44;101093.94;;;3.37;100.00
44359;BME280;30077;52.474;13.326;2022-12-05T23:35:44;101086.94;;;3.36;100.00
44359;BME280;30077;52.474;13.326;2022-12-05T23:40:57;101085.19;;;3.35;100.00
44359;BME280;30077;52.474;13.326;2022-12-05T23:45:57;101083.41;;;3.37;100.00
44359;BME280;30077;52.474;13.326;2022-12-05T23:56:16;101074.63;;;3.38;100.00
